PGA weather

Page Municipal Airport
Page, Arizona, United States

Public forecast

Using degrees Fahrenheit for public forecast. Weather courtesy of forecast.io.

METAR (pilot weather report)

Retrieved 2019/07/18 09:53 UTC (58 minutes ago):

KPGA 180953Z AUTO 11003KT 10SM CLR 24/M04 A3004 RMK AO2 SLP094 T02441044 TSNO

TAF (pilot weather forecast)

Retrieved 2019/07/18 06:24 UTC (4 hours ago):

TAF KPGA 180521Z 1806/1906 VRB06KT P6SM SKC FM181600 27010G18KT P6SM SKC FM190200 VRB05KT P6SM SKC